sensor_id;sensor_type;location;lat;lon;timestamp;pressure;altitude;pressure_sealevel;temperature;humidity
53116;BME280;39010;48.088;7.954;2022-08-19T00:01:57;98301.72;;;17.43;100.00
53116;BME280;39010;48.088;7.954;2022-08-19T00:04:31;98302.78;;;17.42;100.00
53116;BME280;39010;48.088;7.954;2022-08-19T00:06:59;98309.38;;;17.46;100.00
53116;BME280;39010;48.088;7.954;2022-08-19T00:09:27;98302.31;;;17.45;100.00
53116;BME280;39010;48.088;7.954;2022-08-19T00:11:55;98298.06;;;17.49;100.00
53116;BME280;39010;48.088;7.954;2022-08-19T00:14:24;98302.78;;;17.42;100.00
53116;BME280;39010;48.088;7.954;2022-08-19T00:16:51;98301.59;;;17.37;100.00
53116;BME280;39010;48.088;7.954;2022-08-19T00:19:21;98308.09;;;17.36;100.00
53116;BME280;39010;48.088;7.954;2022-08-19T00:21:48;98302.91;;;17.35;100.00
53116;BME280;39010;48.088;7.954;2022-08-19T00:24:14;98302.06;;;17.34;100.00
53116;BME280;39010;48.088;7.954;2022-08-19T00:26:42;98299.94;;;17.36;100.00
53116;BME280;39010;48.088;7.954;2022-08-19T00:29:11;98305.16;;;17.38;100.00
53116;BME280;39010;48.088;7.954;2022-08-19T00:31:39;98305.38;;;17.36;100.00
53116;BME280;39010;48.088;7.954;2022-08-19T00:34:05;98302.06;;;17.34;100.00
53116;BME280;39010;48.088;7.954;2022-08-19T00:36:32;98304.78;;;17.34;100.00
53116;BME280;39010;48.088;7.954;2022-08-19T00:38:59;98313.28;;;17.38;100.00
53116;BME280;39010;48.088;7.954;2022-08-19T00:41:26;98308.66;;;17.38;100.00
53116;BME280;39010;48.088;7.954;2022-08-19T00:46:26;98310.19;;;17.34;100.00
53116;BME280;39010;48.088;7.954;2022-08-19T00:48:53;98295.44;;;17.30;100.00
53116;BME280;39010;48.088;7.954;2022-08-19T00:51:20;98292.53;;;17.32;100.00
53116;BME280;39010;48.088;7.954;2022-08-19T00:53:48;98286.84;;;17.33;100.00
53116;BME280;39010;48.088;7.954;2022-08-19T00:56:14;98287.19;;;17.25;100.00
53116;BME280;39010;48.088;7.954;2022-08-19T00:58:41;98293.56;;;17.19;100.00
53116;BME280;39010;48.088;7.954;2022-08-19T01:01:08;98289.31;;;17.23;100.00
53116;BME280;39010;48.088;7.954;2022-08-19T01:03:37;98287.78;;;17.27;100.00
53116;BME280;39010;48.088;7.954;2022-08-19T01:06:25;98286.72;;;17.28;100.00
53116;BME280;39010;48.088;7.954;2022-08-19T01:08:51;98297.09;;;17.31;100.00
53116;BME280;39010;48.088;7.954;2022-08-19T01:11:18;98298.41;;;17.29;100.00
53116;BME280;39010;48.088;7.954;2022-08-19T01:13:44;98294.63;;;17.30;100.00
53116;BME280;39010;48.088;7.954;2022-08-19T01:16:17;98300.06;;;17.30;100.00
53116;BME280;39010;48.088;7.954;2022-08-19T01:18:45;98301.34;;;17.27;100.00
53116;BME280;39010;48.088;7.954;2022-08-19T01:21:19;98305.38;;;17.36;100.00
53116;BME280;39010;48.088;7.954;2022-08-19T01:23:48;98299.94;;;17.36;100.00
53116;BME280;39010;48.088;7.954;2022-08-19T01:26:18;98303.00;;;17.28;100.00
53116;BME280;39010;48.088;7.954;2022-08-19T01:28:47;98292.16;;;17.28;100.00
53116;BME280;39010;48.088;7.954;2022-08-19T01:31:20;98296.28;;;17.31;100.00
53116;BME280;39010;48.088;7.954;2022-08-19T01:33:55;98301.34;;;17.27;100.00
53116;BME280;39010;48.088;7.954;2022-08-19T01:36:27;98295.69;;;17.29;100.00
53116;BME280;39010;48.088;7.954;2022-08-19T01:38:55;98285.91;;;17.28;100.00
53116;BME280;39010;48.088;7.954;2022-08-19T01:41:22;98287.56;;;17.29;100.00
53116;BME280;39010;48.088;7.954;2022-08-19T01:43:51;98292.75;;;17.30;100.00
53116;BME280;39010;48.088;7.954;2022-08-19T01:46:38;98288.50;;;17.34;100.00
53116;BME280;39010;48.088;7.954;2022-08-19T01:49:05;98289.34;;;17.35;100.00
53116;BME280;39010;48.088;7.954;2022-08-19T01:51:32;98287.56;;;17.29;100.00
53116;BME280;39010;48.088;7.954;2022-08-19T01:54:09;98276.47;;;17.30;100.00
53116;BME280;39010;48.088;7.954;2022-08-19T01:56:36;98281.41;;;17.33;100.00
53116;BME280;39010;48.088;7.954;2022-08-19T01:59:09;98274.94;;;17.34;100.00
53116;BME280;39010;48.088;7.954;2022-08-19T02:01:36;98273.28;;;17.33;100.00
53116;BME280;39010;48.088;7.954;2022-08-19T02:04:03;98267.03;;;17.33;100.00
53116;BME280;39010;48.088;7.954;2022-08-19T02:06:29;98268.91;;;17.32;100.00
53116;BME280;39010;48.088;7.954;2022-08-19T02:08:56;98271.41;;;17.34;100.00
53116;BME280;39010;48.088;7.954;2022-08-19T02:11:30;98264.44;;;17.38;100.00
53116;BME280;39010;48.088;7.954;2022-08-19T02:14:00;98271.16;;;17.35;100.00
53116;BME280;39010;48.088;7.954;2022-08-19T02:16:28;98264.22;;;17.28;100.00
53116;BME280;39010;48.088;7.954;2022-08-19T02:18:55;98271.63;;;17.32;100.00
53116;BME280;39010;48.088;7.954;2022-08-19T02:21:22;98266.56;;;17.36;100.00
53116;BME280;39010;48.088;7.954;2022-08-19T02:23:49;98267.16;;;17.38;100.00
53116;BME280;39010;48.088;7.954;2022-08-19T02:26:16;98264.19;;;17.40;100.00
53116;BME280;39010;48.088;7.954;2022-08-19T02:28:43;98259.84;;;17.38;100.00
53116;BME280;39010;48.088;7.954;2022-08-19T02:31:13;98265.25;;;17.38;100.00
53116;BME280;39010;48.088;7.954;2022-08-19T02:33:41;98260.44;;;17.41;100.00
53116;BME280;39010;48.088;7.954;2022-08-19T02:36:09;98262.91;;;17.30;100.00
53116;BME280;39010;48.088;7.954;2022-08-19T02:38:36;98266.19;;;17.32;100.00
53116;BME280;39010;48.088;7.954;2022-08-19T02:41:09;98258.31;;;17.31;100.00
53116;BME280;39010;48.088;7.954;2022-08-19T02:43:37;98250.19;;;17.31;100.00
53116;BME280;39010;48.088;7.954;2022-08-19T02:46:14;98259.59;;;17.28;100.00
53116;BME280;39010;48.088;7.954;2022-08-19T02:48:41;98255.81;;;17.29;100.00
53116;BME280;39010;48.088;7.954;2022-08-19T02:51:08;98262.44;;;17.33;100.00
53116;BME280;39010;48.088;7.954;2022-08-19T02:53:34;98259.59;;;17.28;100.00
53116;BME280;39010;48.088;7.954;2022-08-19T02:56:01;98264.22;;;17.28;100.00
53116;BME280;39010;48.088;7.954;2022-08-19T02:58:27;98256.66;;;17.30;100.00
53116;BME280;39010;48.088;7.954;2022-08-19T03:00:55;98259.59;;;17.28;100.00
53116;BME280;39010;48.088;7.954;2022-08-19T03:03:22;98267.97;;;17.27;100.00
53116;BME280;39010;48.088;7.954;2022-08-19T03:05:49;98271.97;;;17.24;100.00
53116;BME280;39010;48.088;7.954;2022-08-19T03:08:23;98276.47;;;17.30;100.00
53116;BME280;39010;48.088;7.954;2022-08-19T03:10:52;98275.66;;;17.30;100.00
53116;BME280;39010;48.088;7.954;2022-08-19T03:13:19;98273.41;;;17.27;100.00
53116;BME280;39010;48.088;7.954;2022-08-19T03:15:47;98282.47;;;17.32;100.00
53116;BME280;39010;48.088;7.954;2022-08-19T03:18:15;98293.34;;;17.32;100.00
53116;BME280;39010;48.088;7.954;2022-08-19T03:20:51;98292.03;;;17.23;100.00
53116;BME280;39010;48.088;7.954;2022-08-19T03:23:19;98292.63;;;17.25;100.00
53116;BME280;39010;48.088;7.954;2022-08-19T03:25:46;98290.88;;;17.31;100.00
53116;BME280;39010;48.088;7.954;2022-08-19T03:28:33;98292.88;;;17.35;100.00
53116;BME280;39010;48.088;7.954;2022-08-19T03:31:06;98292.75;;;17.42;100.00
53116;BME280;39010;48.088;7.954;2022-08-19T03:33:52;98296.63;;;17.34;100.00
53116;BME280;39010;48.088;7.954;2022-08-19T03:36:22;98290.88;;;17.31;100.00
53116;BME280;39010;48.088;7.954;2022-08-19T03:38:54;98285.91;;;17.28;100.00
53116;BME280;39010;48.088;7.954;2022-08-19T03:41:35;98290.25;;;17.17;100.00
53116;BME280;39010;48.088;7.954;2022-08-19T03:44:19;98301.00;;;17.23;100.00
53116;BME280;39010;48.088;7.954;2022-08-19T03:46:52;98297.56;;;17.28;100.00
53116;BME280;39010;48.088;7.954;2022-08-19T03:49:19;98303.13;;;17.33;100.00
53116;BME280;39010;48.088;7.954;2022-08-19T03:51:53;98314.69;;;17.29;100.00
53116;BME280;39010;48.088;7.954;2022-08-19T03:54:22;98306.69;;;17.34;100.00
53116;BME280;39010;48.088;7.954;2022-08-19T03:56:51;98305.38;;;17.36;100.00
53116;BME280;39010;48.088;7.954;2022-08-19T03:59:23;98306.09;;;17.44;100.00
53116;BME280;39010;48.088;7.954;2022-08-19T04:01:54;98308.09;;;17.36;100.00
53116;BME280;39010;48.088;7.954;2022-08-19T04:04:21;98314.56;;;17.35;100.00
53116;BME280;39010;48.088;7.954;2022-08-19T04:06:48;98324.00;;;17.33;100.00
53116;BME280;39010;48.088;7.954;2022-08-19T04:09:15;98314.56;;;17.35;100.00
53116;BME280;39010;48.088;7.954;2022-08-19T04:11:53;98314.09;;;17.38;100.00
53116;BME280;39010;48.088;7.954;2022-08-19T04:14:25;98313.28;;;17.38;100.00
53116;BME280;39010;48.088;7.954;2022-08-19T04:16:52;98319.53;;;17.38;100.00
53116;BME280;39010;48.088;7.954;2022-08-19T04:19:19;98327.19;;;17.30;100.00
53116;BME280;39010;48.088;7.954;2022-08-19T04:21:48;98330.84;;;17.35;100.00
53116;BME280;39010;48.088;7.954;2022-08-19T04:24:16;98328.25;;;17.41;100.00
53116;BME280;39010;48.088;7.954;2022-08-19T04:26:44;98323.38;;;17.19;100.00
53116;BME280;39010;48.088;7.954;2022-08-19T04:29:15;98324.09;;;17.26;100.00
53116;BME280;39010;48.088;7.954;2022-08-19T04:31:43;98326.47;;;17.34;100.00
53116;BME280;39010;48.088;7.954;2022-08-19T04:34:11;98322.84;;;17.41;100.00
53116;BME280;39010;48.088;7.954;2022-08-19T04:36:40;98323.53;;;17.36;100.00
53116;BME280;39010;48.088;7.954;2022-08-19T04:39:16;98323.66;;;17.41;100.00
53116;BME280;39010;48.088;7.954;2022-08-19T04:41:44;98307.84;;;17.38;100.00
53116;BME280;39010;48.088;7.954;2022-08-19T04:44:34;98311.72;;;17.30;100.00
53116;BME280;39010;48.088;7.954;2022-08-19T04:47:11;98317.41;;;17.29;100.00
53116;BME280;39010;48.088;7.954;2022-08-19T04:49:37;98316.69;;;17.33;100.00
53116;BME280;39010;48.088;7.954;2022-08-19T04:52:04;98315.41;;;17.36;100.00
53116;BME280;39010;48.088;7.954;2022-08-19T04:54:31;98317.88;;;17.37;100.00
53116;BME280;39010;48.088;7.954;2022-08-19T04:57:06;98331.44;;;17.37;100.00
53116;BME280;39010;48.088;7.954;2022-08-19T04:59:36;98332.75;;;17.35;100.00
53116;BME280;39010;48.088;7.954;2022-08-19T05:02:04;98330.38;;;17.38;100.00
53116;BME280;39010;48.088;7.954;2022-08-19T05:04:31;98335.00;;;17.38;100.00
53116;BME280;39010;48.088;7.954;2022-08-19T05:07:00;98343.59;;;17.35;100.00
53116;BME280;39010;48.088;7.954;2022-08-19T05:09:28;98347.38;;;17.34;100.00
53116;BME280;39010;48.088;7.954;2022-08-19T05:12:16;98349.63;;;17.37;100.00
53116;BME280;39010;48.088;7.954;2022-08-19T05:14:43;98354.66;;;17.33;100.00
53116;BME280;39010;48.088;7.954;2022-08-19T05:17:11;98355.03;;;17.37;100.00
53116;BME280;39010;48.088;7.954;2022-08-19T05:19:57;98364.59;;;17.40;100.00
53116;BME280;39010;48.088;7.954;2022-08-19T05:22:44;98364.13;;;17.43;100.00
53116;BME280;39010;48.088;7.954;2022-08-19T05:25:13;98364.25;;;17.48;100.00
53116;BME280;39010;48.088;7.954;2022-08-19T05:27:42;98362.38;;;17.48;100.00
53116;BME280;39010;48.088;7.954;2022-08-19T05:30:09;98357.16;;;17.47;100.00
53116;BME280;39010;48.088;7.954;2022-08-19T05:32:37;98359.53;;;17.43;100.00
53116;BME280;39010;48.088;7.954;2022-08-19T05:35:05;98360.72;;;17.47;100.00
53116;BME280;39010;48.088;7.954;2022-08-19T05:37:33;98360.00;;;17.52;100.00
53116;BME280;39010;48.088;7.954;2022-08-19T05:39:59;98358.59;;;17.49;100.00
53116;BME280;39010;48.088;7.954;2022-08-19T05:42:26;98355.63;;;17.51;100.00
53116;BME280;39010;48.088;7.954;2022-08-19T05:44:52;98357.88;;;17.54;100.00
53116;BME280;39010;48.088;7.954;2022-08-19T05:47:19;98364.84;;;17.50;100.00
53116;BME280;39010;48.088;7.954;2022-08-19T05:49:47;98366.97;;;17.48;100.00
53116;BME280;39010;48.088;7.954;2022-08-19T05:52:17;98375.69;;;17.50;100.00
53116;BME280;39010;48.088;7.954;2022-08-19T05:54:44;98368.63;;;17.49;100.00
53116;BME280;39010;48.088;7.954;2022-08-19T05:57:18;98372.03;;;17.44;100.00
53116;BME280;39010;48.088;7.954;2022-08-19T05:59:45;98376.88;;;17.42;100.00
53116;BME280;39010;48.088;7.954;2022-08-19T06:02:28;98381.13;;;17.50;100.00
53116;BME280;39010;48.088;7.954;2022-08-19T06:04:56;98389.38;;;17.55;100.00
53116;BME280;39010;48.088;7.954;2022-08-19T06:07:23;98384.34;;;17.59;100.00
53116;BME280;39010;48.088;7.954;2022-08-19T06:09:49;98387.88;;;17.59;100.00
53116;BME280;39010;48.088;7.954;2022-08-19T06:12:31;98391.63;;;17.58;100.00
53116;BME280;39010;48.088;7.954;2022-08-19T06:15:04;98396.38;;;17.63;100.00
53116;BME280;39010;48.088;7.954;2022-08-19T06:17:31;98399.19;;;17.68;100.00
53116;BME280;39010;48.088;7.954;2022-08-19T06:20:03;98397.53;;;17.67;100.00
53116;BME280;39010;48.088;7.954;2022-08-19T06:22:29;98406.53;;;17.56;100.00
53116;BME280;39010;48.088;7.954;2022-08-19T06:24:56;98410.28;;;17.66;100.00
53116;BME280;39010;48.088;7.954;2022-08-19T06:27:22;98407.59;;;17.66;100.00
53116;BME280;39010;48.088;7.954;2022-08-19T06:29:49;98414.63;;;17.44;100.00
53116;BME280;39010;48.088;7.954;2022-08-19T06:32:17;98405.34;;;17.51;100.00
53116;BME280;39010;48.088;7.954;2022-08-19T06:34:44;98403.56;;;17.57;100.00
53116;BME280;39010;48.088;7.954;2022-08-19T06:37:11;98411.34;;;17.65;100.00
53116;BME280;39010;48.088;7.954;2022-08-19T06:39:39;98410.53;;;17.65;100.00
53116;BME280;39010;48.088;7.954;2022-08-19T06:42:07;98423.88;;;17.66;100.00
53116;BME280;39010;48.088;7.954;2022-08-19T06:44:39;98414.91;;;17.66;100.00
53116;BME280;39010;48.088;7.954;2022-08-19T06:47:12;98406.06;;;17.71;100.00
53116;BME280;39010;48.088;7.954;2022-08-19T06:49:48;98419.63;;;17.71;100.00
53116;BME280;39010;48.088;7.954;2022-08-19T06:52:14;98414.78;;;17.73;100.00
53116;BME280;39010;48.088;7.954;2022-08-19T06:54:42;98420.34;;;17.78;100.00
53116;BME280;39010;48.088;7.954;2022-08-19T06:57:23;98415.97;;;17.77;100.00
53116;BME280;39010;48.088;7.954;2022-08-19T06:59:51;98415.25;;;17.81;100.00
53116;BME280;39010;48.088;7.954;2022-08-19T07:02:18;98409.25;;;17.91;100.00
53116;BME280;39010;48.088;7.954;2022-08-19T07:04:45;98402.03;;;17.97;100.00
53116;BME280;39010;48.088;7.954;2022-08-19T07:07:14;98409.75;;;18.00;100.00
53116;BME280;39010;48.088;7.954;2022-08-19T07:09:47;98403.16;;;18.08;100.00
53116;BME280;39010;48.088;7.954;2022-08-19T07:12:31;98407.16;;;18.17;100.00
53116;BME280;39010;48.088;7.954;2022-08-19T07:15:03;98406.81;;;18.25;100.00
53116;BME280;39010;48.088;7.954;2022-08-19T07:17:30;98412.34;;;18.31;100.00
53116;BME280;39010;48.088;7.954;2022-08-19T07:19:59;98420.72;;;18.29;100.00
53116;BME280;39010;48.088;7.954;2022-08-19T07:22:35;98414.47;;;18.29;100.00
53116;BME280;39010;48.088;7.954;2022-08-19T07:25:02;98419.44;;;18.32;100.00
53116;BME280;39010;48.088;7.954;2022-08-19T07:27:29;98420.25;;;18.32;100.00
53116;BME280;39010;48.088;7.954;2022-08-19T07:29:59;98426.16;;;18.41;100.00
53116;BME280;39010;48.088;7.954;2022-08-19T07:32:26;98424.03;;;18.31;100.00
53116;BME280;39010;48.088;7.954;2022-08-19T07:34:53;98421.66;;;18.47;100.00
53116;BME280;39010;48.088;7.954;2022-08-19T07:37:22;98425.53;;;18.51;100.00
53116;BME280;39010;48.088;7.954;2022-08-19T07:39:49;98421.72;;;18.64;100.00
53116;BME280;39010;48.088;7.954;2022-08-19T07:42:16;98419.88;;;18.52;100.00
53116;BME280;39010;48.088;7.954;2022-08-19T07:44:47;98418.81;;;18.53;100.00
53116;BME280;39010;48.088;7.954;2022-08-19T07:47:16;98415.78;;;18.67;100.00
53116;BME280;39010;48.088;7.954;2022-08-19T07:50:07;98423.38;;;18.65;100.00
53116;BME280;39010;48.088;7.954;2022-08-19T07:52:36;98421.72;;;18.64;100.00
53116;BME280;39010;48.088;7.954;2022-08-19T07:55:06;98417.13;;;18.64;100.00
53116;BME280;39010;48.088;7.954;2022-08-19T07:57:53;98420.34;;;18.49;100.00
53116;BME280;39010;48.088;7.954;2022-08-19T08:00:20;98412.06;;;18.56;100.00
53116;BME280;39010;48.088;7.954;2022-08-19T08:02:50;98422.34;;;18.54;100.00
53116;BME280;39010;48.088;7.954;2022-08-19T08:05:20;98426.00;;;18.48;100.00
53116;BME280;39010;48.088;7.954;2022-08-19T08:08:09;98430.38;;;18.49;100.00
53116;BME280;39010;48.088;7.954;2022-08-19T08:11:14;98438.19;;;18.45;100.00
53116;BME280;39010;48.088;7.954;2022-08-19T08:13:43;98434.41;;;18.46;100.00
53116;BME280;39010;48.088;7.954;2022-08-19T08:16:09;98431.81;;;18.51;100.00
53116;BME280;39010;48.088;7.954;2022-08-19T08:18:40;98437.00;;;18.53;100.00
53116;BME280;39010;48.088;7.954;2022-08-19T08:21:08;98443.59;;;18.57;100.00
53116;BME280;39010;48.088;7.954;2022-08-19T08:23:35;98451.13;;;18.67;100.00
53116;BME280;39010;48.088;7.954;2022-08-19T08:26:05;98448.19;;;18.68;100.00
53116;BME280;39010;48.088;7.954;2022-08-19T08:28:31;98461.53;;;18.70;100.00
53116;BME280;39010;48.088;7.954;2022-08-19T08:30:58;98453.38;;;18.70;100.00
53116;BME280;39010;48.088;7.954;2022-08-19T08:33:26;98463.66;;;18.80;100.00
53116;BME280;39010;48.088;7.954;2022-08-19T08:36:00;98456.91;;;18.82;100.00
53116;BME280;39010;48.088;7.954;2022-08-19T08:38:30;98461.75;;;18.80;100.00
53116;BME280;39010;48.088;7.954;2022-08-19T08:43:46;98465.63;;;18.84;100.00
53116;BME280;39010;48.088;7.954;2022-08-19T08:46:23;98457.97;;;18.81;100.00
53116;BME280;39010;48.088;7.954;2022-08-19T08:49:00;98468.38;;;18.96;100.00
53116;BME280;39010;48.088;7.954;2022-08-19T08:51:41;98467.06;;;18.99;100.00
53116;BME280;39010;48.088;7.954;2022-08-19T08:54:14;98471.03;;;19.08;100.00
53116;BME280;39010;48.088;7.954;2022-08-19T08:56:45;98472.56;;;19.16;100.00
53116;BME280;39010;48.088;7.954;2022-08-19T08:59:28;98484.16;;;19.11;100.00
53116;BME280;39010;48.088;7.954;2022-08-19T09:01:56;98477.84;;;19.23;100.00
53116;BME280;39010;48.088;7.954;2022-08-19T09:04:23;98485.53;;;19.26;100.00
53116;BME280;39010;48.088;7.954;2022-08-19T09:07:13;98487.44;;;19.25;100.00
53116;BME280;39010;48.088;7.954;2022-08-19T09:10:21;98492.53;;;19.22;100.00
53116;BME280;39010;48.088;7.954;2022-08-19T09:15:42;98492.19;;;19.18;100.00
53116;BME280;39010;48.088;7.954;2022-08-19T09:18:13;98499.69;;;18.99;100.00
53116;BME280;39010;48.088;7.954;2022-08-19T09:20:45;98505.59;;;18.96;100.00
53116;BME280;39010;48.088;7.954;2022-08-19T09:23:14;98503.94;;;18.95;100.00
53116;BME280;39010;48.088;7.954;2022-08-19T09:25:40;98508.44;;;19.01;100.00
53116;BME280;39010;48.088;7.954;2022-08-19T09:28:07;98504.44;;;19.04;100.00
53116;BME280;39010;48.088;7.954;2022-08-19T09:30:48;98505.59;;;18.96;100.00
53116;BME280;39010;48.088;7.954;2022-08-19T09:33:14;98508.44;;;19.01;100.00
53116;BME280;39010;48.088;7.954;2022-08-19T09:35:42;98505.56;;;19.20;100.00
53116;BME280;39010;48.088;7.954;2022-08-19T09:38:19;98500.78;;;19.27;100.00
53116;BME280;39010;48.088;7.954;2022-08-19T09:40:46;98503.47;;;19.39;100.00
53116;BME280;39010;48.088;7.954;2022-08-19T09:43:13;98500.78;;;19.56;100.00
53116;BME280;39010;48.088;7.954;2022-08-19T09:45:39;98506.25;;;19.73;100.00
53116;BME280;39010;48.088;7.954;2022-08-19T09:48:06;98503.22;;;19.86;100.00
53116;BME280;39010;48.088;7.954;2022-08-19T09:50:36;98514.22;;;19.92;100.00
53116;BME280;39010;48.088;7.954;2022-08-19T09:53:17;98511.13;;;20.17;100.00
53116;BME280;39010;48.088;7.954;2022-08-19T09:55:44;98512.44;;;20.31;100.00
53116;BME280;39010;48.088;7.954;2022-08-19T09:58:10;98520.50;;;20.43;100.00
53116;BME280;39010;48.088;7.954;2022-08-19T10:00:37;98510.97;;;20.46;100.00
53116;BME280;39010;48.088;7.954;2022-08-19T10:03:04;98507.44;;;20.45;100.00
53116;BME280;39010;48.088;7.954;2022-08-19T10:05:32;98510.94;;;20.24;100.00
53116;BME280;39010;48.088;7.954;2022-08-19T10:08:24;98507.56;;;20.16;100.00
53116;BME280;39010;48.088;7.954;2022-08-19T10:10:53;98517.06;;;20.14;100.00
53116;BME280;39010;48.088;7.954;2022-08-19T10:13:23;98521.59;;;20.08;100.00
53116;BME280;39010;48.088;7.954;2022-08-19T10:15:53;98524.91;;;19.93;100.00
53116;BME280;39010;48.088;7.954;2022-08-19T10:18:22;98522.84;;;20.00;100.00
53116;BME280;39010;48.088;7.954;2022-08-19T10:20:51;98526.38;;;20.01;100.00
53116;BME280;39010;48.088;7.954;2022-08-19T10:23:20;98517.13;;;20.02;100.00
53116;BME280;39010;48.088;7.954;2022-08-19T10:25:47;98520.94;;;20.18;100.00
53116;BME280;39010;48.088;7.954;2022-08-19T10:28:14;98520.25;;;20.28;100.00
53116;BME280;39010;48.088;7.954;2022-08-19T10:30:40;98516.94;;;20.43;100.00
53116;BME280;39010;48.088;7.954;2022-08-19T10:33:08;98517.19;;;20.41;100.00
53116;BME280;39010;48.088;7.954;2022-08-19T10:35:37;98516.94;;;20.43;99.51
53116;BME280;39010;48.088;7.954;2022-08-19T10:38:22;98526.00;;;20.66;97.02
53116;BME280;39010;48.088;7.954;2022-08-19T10:40:57;98524.53;;;20.58;96.30
53116;BME280;39010;48.088;7.954;2022-08-19T10:43:24;98526.31;;;20.69;98.50
53116;BME280;39010;48.088;7.954;2022-08-19T10:45:54;98519.03;;;20.75;100.00
53116;BME280;39010;48.088;7.954;2022-08-19T10:48:25;98523.06;;;20.89;100.00
53116;BME280;39010;48.088;7.954;2022-08-19T10:50:52;98523.56;;;20.86;94.46
53116;BME280;39010;48.088;7.954;2022-08-19T10:53:49;98525.94;;;21.00;99.40
53116;BME280;39010;48.088;7.954;2022-08-19T10:56:17;98525.44;;;21.03;95.68
53116;BME280;39010;48.088;7.954;2022-08-19T10:59:03;98522.13;;;21.01;100.00
53116;BME280;39010;48.088;7.954;2022-08-19T11:01:31;98511.84;;;21.08;98.08
53116;BME280;39010;48.088;7.954;2022-08-19T11:04:01;98518.44;;;21.12;99.90
53116;BME280;39010;48.088;7.954;2022-08-19T11:06:28;98526.69;;;21.17;100.00
53116;BME280;39010;48.088;7.954;2022-08-19T11:08:55;98515.09;;;21.05;100.00
53116;BME280;39010;48.088;7.954;2022-08-19T11:11:22;98523.41;;;21.15;94.40
53116;BME280;39010;48.088;7.954;2022-08-19T11:13:49;98510.31;;;21.17;98.93
53116;BME280;39010;48.088;7.954;2022-08-19T11:16:19;98516.09;;;21.21;94.55
53116;BME280;39010;48.088;7.954;2022-08-19T11:18:50;98517.22;;;21.47;96.45
53116;BME280;39010;48.088;7.954;2022-08-19T11:21:21;98519.72;;;21.27;93.08
53116;BME280;39010;48.088;7.954;2022-08-19T11:23:51;98515.22;;;21.43;94.71
53116;BME280;39010;48.088;7.954;2022-08-19T11:26:19;98515.19;;;21.38;92.33
53116;BME280;39010;48.088;7.954;2022-08-19T11:28:46;98516.47;;;21.30;89.89
53116;BME280;39010;48.088;7.954;2022-08-19T11:31:18;98515.56;;;21.46;92.54
53116;BME280;39010;48.088;7.954;2022-08-19T11:33:45;98506.00;;;21.49;90.99
53116;BME280;39010;48.088;7.954;2022-08-19T11:36:13;98506.53;;;21.46;91.20
53116;BME280;39010;48.088;7.954;2022-08-19T11:38:41;98509.06;;;21.53;97.05
53116;BME280;39010;48.088;7.954;2022-08-19T11:41:07;98514.41;;;21.65;98.36
53116;BME280;39010;48.088;7.954;2022-08-19T11:43:35;98513.69;;;21.74;95.71
53116;BME280;39010;48.088;7.954;2022-08-19T11:46:11;98512.56;;;21.70;91.04
53116;BME280;39010;48.088;7.954;2022-08-19T11:48:38;98511.00;;;21.80;98.88
53116;BME280;39010;48.088;7.954;2022-08-19T11:51:08;98504.75;;;21.57;92.76
53116;BME280;39010;48.088;7.954;2022-08-19T11:53:36;98507.75;;;21.83;89.09
53116;BME280;39010;48.088;7.954;2022-08-19T11:56:04;98510.28;;;21.40;95.30
53116;BME280;39010;48.088;7.954;2022-08-19T11:58:31;98509.50;;;21.67;96.91
53116;BME280;39010;48.088;7.954;2022-08-19T12:00:57;98508.47;;;21.73;96.67
53116;BME280;39010;48.088;7.954;2022-08-19T12:03:24;98508.44;;;22.00;91.22
53116;BME280;39010;48.088;7.954;2022-08-19T12:05:51;98501.91;;;22.39;86.33
53116;BME280;39010;48.088;7.954;2022-08-19T12:08:18;98504.50;;;22.61;84.66
53116;BME280;39010;48.088;7.954;2022-08-19T12:10:45;98504.09;;;22.85;83.66
53116;BME280;39010;48.088;7.954;2022-08-19T12:13:13;98500.34;;;23.02;79.19
53116;BME280;39010;48.088;7.954;2022-08-19T12:15:46;98498.41;;;22.92;78.52
53116;BME280;39010;48.088;7.954;2022-08-19T12:18:14;98496.00;;;23.11;78.33
53116;BME280;39010;48.088;7.954;2022-08-19T12:20:42;98495.00;;;23.33;79.57
53116;BME280;39010;48.088;7.954;2022-08-19T12:23:10;98506.69;;;23.18;78.45
53116;BME280;39010;48.088;7.954;2022-08-19T12:25:38;98505.25;;;23.00;77.49
53116;BME280;39010;48.088;7.954;2022-08-19T12:28:09;98485.56;;;23.03;79.82
53116;BME280;39010;48.088;7.954;2022-08-19T12:30:37;98488.34;;;23.13;77.03
53116;BME280;39010;48.088;7.954;2022-08-19T12:33:04;98494.44;;;23.26;75.89
53116;BME280;39010;48.088;7.954;2022-08-19T12:35:30;98495.59;;;23.56;73.04
53116;BME280;39010;48.088;7.954;2022-08-19T12:37:58;98497.38;;;23.19;76.82
53116;BME280;39010;48.088;7.954;2022-08-19T12:40:25;98481.56;;;23.36;71.76
53116;BME280;39010;48.088;7.954;2022-08-19T12:42:53;98481.91;;;23.92;73.51
53116;BME280;39010;48.088;7.954;2022-08-19T12:45:19;98492.34;;;23.64;71.96
53116;BME280;39010;48.088;7.954;2022-08-19T12:47:46;98499.19;;;23.92;68.77
53116;BME280;39010;48.088;7.954;2022-08-19T12:50:14;98494.50;;;24.55;68.79
53116;BME280;39010;48.088;7.954;2022-08-19T12:52:41;98495.81;;;24.83;65.75
53116;BME280;39010;48.088;7.954;2022-08-19T12:55:09;98494.97;;;24.93;65.29
53116;BME280;39010;48.088;7.954;2022-08-19T12:57:35;98485.34;;;24.91;63.98
53116;BME280;39010;48.088;7.954;2022-08-19T13:00:08;98486.66;;;25.09;60.95
53116;BME280;39010;48.088;7.954;2022-08-19T13:02:43;98478.97;;;25.11;61.10
53116;BME280;39010;48.088;7.954;2022-08-19T13:05:13;98478.50;;;24.93;62.48
53116;BME280;39010;48.088;7.954;2022-08-19T13:07:42;98475.81;;;24.78;60.77
53116;BME280;39010;48.088;7.954;2022-08-19T13:10:16;98486.88;;;24.16;61.38
53116;BME280;39010;48.088;7.954;2022-08-19T13:12:44;98490.72;;;23.99;63.38
53116;BME280;39010;48.088;7.954;2022-08-19T13:15:12;98491.22;;;24.48;65.51
53116;BME280;39010;48.088;7.954;2022-08-19T13:17:41;98485.59;;;25.05;64.95